Time;durP1;ratioP1;P1;durP2;ratioP2;P2;SDS_P1;SDS_P2;PMS_P1;PMS_P2;Temp;Humidity;BMP_temperature;BMP_pressure;BME280_temperature;BME280_humidity;BME280_pressure;Samples;Min_cycle;Max_cycle;Signal;HPM_P1;HPM_P2
2022/03/08 00:02:18;;;;;;;79.40;28.33;;;6.70;70.90;;;;;;5022456;28;20480;-63
2022/03/08 00:04:43;;;;;;;71.13;27.58;;;6.60;70.90;;;;;;5023661;28;20075;-60
2022/03/08 00:07:09;;;;;;;79.97;26.35;;;6.60;70.90;;;;;;5006881;28;20029;-61
2022/03/08 00:09:35;;;;;;;85.60;27.52;;;6.60;70.90;;;;;;5025562;28;20501;-61
2022/03/08 00:12:00;;;;;;;70.28;27.27;;;6.60;70.90;;;;;;5004409;28;20609;-60
2022/03/08 00:14:26;;;;;;;79.30;27.30;;;6.60;71.00;;;;;;5023702;28;20034;-61
2022/03/08 00:16:51;;;;;;;66.07;27.13;;;6.50;70.90;;;;;;5021506;28;20049;-60
2022/03/08 00:19:18;;;;;;;81.50;26.40;;;6.50;70.70;;;;;;5022466;28;20029;-62
2022/03/08 00:21:43;;;;;;;58.25;26.20;;;6.50;70.70;;;;;;5024658;28;20022;-60
2022/03/08 00:24:09;;;;;;;67.38;27.67;;;6.50;70.80;;;;;;5007003;28;20076;-60
2022/03/08 00:26:34;;;;;;;72.40;28.30;;;6.50;70.70;;;;;;5022741;28;20037;-61
2022/03/08 00:29:00;;;;;;;81.70;28.10;;;6.50;70.20;;;;;;5003946;28;20119;-64
2022/03/08 00:31:25;;;;;;;59.30;28.05;;;6.40;70.40;;;;;;5021255;28;20196;-60
2022/03/08 00:33:51;;;;;;;55.75;25.70;;;6.40;70.40;;;;;;5021959;28;20052;-60
2022/03/08 00:36:16;;;;;;;59.53;26.83;;;6.40;70.40;;;;;;5022097;28;20026;-62
2022/03/08 00:38:42;;;;;;;65.15;28.42;;;6.30;71.00;;;;;;4994155;28;20037;-59
2022/03/08 00:41:07;;;;;;;67.57;28.48;;;6.40;70.40;;;;;;5021267;28;20045;-62
2022/03/08 00:43:33;;;;;;;70.68;25.80;;;6.30;70.40;;;;;;5005646;28;20483;-62
2022/03/08 00:45:58;;;;;;;63.47;26.95;;;6.30;70.30;;;;;;5021759;28;20123;-60
2022/03/08 00:48:24;;;;;;;57.67;25.85;;;6.30;70.30;;;;;;5022035;28;20041;-60
2022/03/08 00:50:50;;;;;;;52.65;25.50;;;6.30;70.40;;;;;;5019316;28;20042;-63
2022/03/08 00:53:15;;;;;;;56.70;26.38;;;6.20;71.30;;;;;;5020430;28;20760;-62
2022/03/08 00:55:41;;;;;;;63.50;23.70;;;6.20;70.40;;;;;;5005624;28;20056;-63
2022/03/08 00:58:07;;;;;;;58.50;24.83;;;6.20;70.50;;;;;;5022590;28;20424;-60
2022/03/08 01:00:33;;;;;;;67.03;27.27;;;6.20;70.40;;;;;;5023386;28;20516;-63
2022/03/08 01:02:59;;;;;;;66.22;27.75;;;6.20;70.20;;;;;;5019617;28;20041;-60
2022/03/08 01:05:24;;;;;;;54.67;28.00;;;6.10;70.10;;;;;;5004292;28;20053;-65
2022/03/08 01:07:50;;;;;;;52.78;26.95;;;6.10;70.20;;;;;;5020960;28;20029;-61
2022/03/08 01:10:17;;;;;;;53.70;26.90;;;6.10;70.20;;;;;;5022793;28;20184;-61
2022/03/08 01:12:43;;;;;;;59.35;27.67;;;6.10;70.20;;;;;;5021960;28;20516;-61
2022/03/08 01:15:09;;;;;;;55.60;27.38;;;6.10;70.30;;;;;;5022421;28;21255;-61
2022/03/08 01:17:35;;;;;;;55.88;27.65;;;6.00;70.30;;;;;;5020623;28;20075;-63
2022/03/08 01:20:00;;;;;;;66.20;28.08;;;6.00;70.20;;;;;;5023132;28;20034;-60
2022/03/08 01:22:26;;;;;;;63.67;26.30;;;6.00;70.30;;;;;;5021880;28;20056;-62
2022/03/08 01:24:52;;;;;;;50.53;25.83;;;6.00;70.20;;;;;;5022595;28;20521;-61
2022/03/08 01:27:17;;;;;;;48.22;25.75;;;5.90;70.00;;;;;;5023264;28;20033;-64
2022/03/08 01:29:43;;;;;;;56.38;26.20;;;5.90;70.20;;;;;;5019402;28;20033;-62
2022/03/08 01:32:09;;;;;;;43.60;23.75;;;5.90;70.30;;;;;;5021567;28;20265;-62
2022/03/08 01:34:34;;;;;;;42.40;24.05;;;5.90;70.20;;;;;;5022925;28;20038;-60
2022/03/08 01:37:01;;;;;;;52.72;25.48;;;5.90;70.20;;;;;;5023463;28;20022;-61
2022/03/08 01:39:26;;;;;;;59.85;26.52;;;5.80;70.00;;;;;;5022525;28;20025;-61
2022/03/08 01:41:52;;;;;;;49.22;27.17;;;5.90;70.00;;;;;;5023281;28;20028;-64
2022/03/08 01:44:18;;;;;;;50.80;26.40;;;5.90;70.00;;;;;;5020243;28;20048;-63
2022/03/08 01:46:44;;;;;;;48.03;25.70;;;5.80;69.90;;;;;;5021939;28;20025;-62
2022/03/08 01:49:09;;;;;;;49.45;24.95;;;5.80;70.00;;;;;;5021903;28;20033;-62
2022/03/08 01:51:37;;;;;;;43.38;25.77;;;5.70;70.00;;;;;;5024744;28;20029;-62
2022/03/08 01:54:03;;;;;;;41.78;25.88;;;5.70;70.10;;;;;;5022064;28;20125;-60
2022/03/08 01:56:29;;;;;;;46.80;25.35;;;5.70;70.10;;;;;;5022014;28;20128;-62
2022/03/08 01:58:56;;;;;;;46.75;26.80;;;5.70;70.00;;;;;;5022867;28;20078;-62
2022/03/08 02:01:21;;;;;;;42.20;25.42;;;5.70;70.20;;;;;;5020590;28;20029;-63
2022/03/08 02:03:47;;;;;;;50.17;26.45;;;5.70;70.30;;;;;;5022172;28;20083;-61
2022/03/08 02:06:13;;;;;;;46.97;27.42;;;5.70;70.20;;;;;;5004635;28;20029;-61
2022/03/08 02:08:38;;;;;;;40.08;25.00;;;5.60;70.20;;;;;;5004447;28;20056;-61
2022/03/08 02:11:04;;;;;;;50.80;26.50;;;5.60;70.10;;;;;;5020068;28;20044;-61
2022/03/08 02:13:29;;;;;;;42.70;26.00;;;5.60;70.10;;;;;;5018605;28;20061;-63
2022/03/08 02:15:55;;;;;;;41.22;24.52;;;5.50;70.10;;;;;;5020672;28;20021;-63
2022/03/08 02:18:20;;;;;;;46.10;25.65;;;5.50;70.10;;;;;;5004081;28;20124;-62
2022/03/08 02:20:46;;;;;;;40.45;23.63;;;5.50;70.20;;;;;;5022017;28;20053;-63
2022/03/08 02:23:12;;;;;;;36.33;22.77;;;5.50;70.60;;;;;;5025035;28;20482;-61
2022/03/08 02:25:37;;;;;;;35.75;25.55;;;5.50;70.50;;;;;;5007072;28;20045;-61
2022/03/08 02:28:03;;;;;;;40.65;24.90;;;5.40;70.60;;;;;;5021379;28;20117;-63
2022/03/08 02:30:28;;;;;;;41.08;24.67;;;5.50;71.10;;;;;;5020692;28;20080;-63
2022/03/08 02:32:54;;;;;;;45.05;24.85;;;5.40;71.40;;;;;;5023518;28;20033;-61
2022/03/08 02:35:22;;;;;;;36.63;24.77;;;5.50;71.30;;;;;;5005152;28;20044;-61
2022/03/08 02:37:49;;;;;;;38.47;25.92;;;5.40;70.90;;;;;;5004801;28;20061;-60
2022/03/08 02:40:17;;;;;;;47.92;25.38;;;5.40;70.80;;;;;;5002521;28;20389;-62
2022/03/08 02:42:43;;;;;;;38.67;25.42;;;5.40;70.70;;;;;;5020825;28;20128;-62
2022/03/08 02:45:09;;;;;;;41.15;24.55;;;5.40;70.60;;;;;;5022442;28;20544;-63
2022/03/08 02:47:34;;;;;;;38.83;26.02;;;5.40;70.50;;;;;;5021417;28;20029;-60
2022/03/08 02:50:00;;;;;;;37.80;25.05;;;5.30;71.20;;;;;;4987416;28;20519;-62
2022/03/08 02:52:25;;;;;;;40.65;24.52;;;5.30;70.30;;;;;;5020828;28;20041;-63
2022/03/08 02:54:51;;;;;;;35.42;23.88;;;5.30;70.30;;;;;;5020887;28;20033;-60
2022/03/08 02:57:17;;;;;;;38.58;25.42;;;5.30;70.10;;;;;;5019841;28;20041;-61
2022/03/08 02:59:43;;;;;;;34.08;23.90;;;5.20;70.00;;;;;;5019714;28;20038;-61
2022/03/08 03:02:08;;;;;;;40.03;24.65;;;5.20;70.00;;;;;;5020243;28;20042;-62
2022/03/08 03:04:34;;;;;;;35.70;23.67;;;5.20;69.80;;;;;;5016574;28;20370;-62
2022/03/08 03:06:59;;;;;;;34.75;25.08;;;5.10;69.80;;;;;;5017737;28;20536;-62
2022/03/08 03:09:25;;;;;;;33.03;23.45;;;5.10;69.80;;;;;;5019839;28;20010;-59
2022/03/08 03:11:50;;;;;;;36.10;24.02;;;5.10;69.70;;;;;;5018044;28;20044;-62
2022/03/08 03:14:16;;;;;;;37.08;24.38;;;5.10;69.60;;;;;;5017210;28;20045;-63
2022/03/08 03:16:41;;;;;;;38.28;23.15;;;5.10;69.50;;;;;;5019259;28;20413;-60
2022/03/08 03:19:07;;;;;;;36.92;23.08;;;5.30;69.60;;;;;;5019177;28;20024;-63
2022/03/08 03:21:32;;;;;;;34.72;23.10;;;5.00;69.50;;;;;;5020266;28;20088;-62
2022/03/08 03:23:58;;;;;;;33.55;23.25;;;5.00;69.40;;;;;;5019661;28;20079;-63
2022/03/08 03:26:23;;;;;;;34.17;22.60;;;5.00;69.40;;;;;;5018031;28;20038;-61
2022/03/08 03:28:49;;;;;;;35.60;23.08;;;5.00;69.30;;;;;;5018007;28;20037;-61
2022/03/08 03:31:15;;;;;;;29.88;22.33;;;5.00;69.20;;;;;;5020511;28;20045;-63
2022/03/08 03:33:40;;;;;;;32.63;22.85;;;4.90;69.10;;;;;;5005292;28;20629;-62
2022/03/08 03:36:06;;;;;;;28.90;22.25;;;4.90;69.10;;;;;;5023053;28;20063;-63
2022/03/08 03:38:31;;;;;;;31.25;22.50;;;4.90;68.80;;;;;;5021383;28;20232;-62
2022/03/08 03:40:57;;;;;;;27.85;23.17;;;4.90;68.90;;;;;;5024521;28;20096;-61
2022/03/08 03:43:22;;;;;;;30.65;22.05;;;4.90;68.90;;;;;;5024577;28;20025;-61
2022/03/08 03:45:48;;;;;;;28.67;21.90;;;4.80;69.60;;;;;;5024140;28;20350;-61
2022/03/08 03:48:13;;;;;;;32.78;22.75;;;4.90;68.90;;;;;;5006954;28;20480;-60
2022/03/08 03:50:39;;;;;;;29.42;23.10;;;4.80;68.80;;;;;;5036201;28;20474;-61
2022/03/08 03:53:05;;;;;;;29.73;22.00;;;4.80;68.90;;;;;;5024923;28;20053;-63
2022/03/08 03:55:30;;;;;;;31.52;21.45;;;4.80;68.80;;;;;;5023727;28;20127;-62
2022/03/08 03:57:56;;;;;;;31.05;22.13;;;4.70;68.80;;;;;;5025006;28;20486;-61
2022/03/08 04:00:21;;;;;;;28.00;21.98;;;4.70;68.80;;;;;;5024524;28;20473;-62
2022/03/08 04:02:47;;;;;;;32.35;21.48;;;4.70;68.90;;;;;;5026169;28;20087;-63
2022/03/08 04:05:12;;;;;;;30.90;22.10;;;4.70;68.60;;;;;;5022989;28;20036;-63
2022/03/08 04:07:38;;;;;;;25.50;21.48;;;4.70;68.60;;;;;;5023076;28;20041;-59
2022/03/08 04:10:05;;;;;;;28.35;20.73;;;4.60;68.50;;;;;;5023458;28;20427;-61
2022/03/08 04:12:30;;;;;;;28.27;21.45;;;4.60;68.50;;;;;;5021377;28;20057;-61
2022/03/08 04:14:56;;;;;;;24.80;20.48;;;4.70;68.80;;;;;;5023062;28;20072;-61
2022/03/08 04:17:21;;;;;;;25.38;20.65;;;4.60;68.80;;;;;;5024764;28;20053;-61
2022/03/08 04:19:47;;;;;;;29.20;21.65;;;4.60;68.90;;;;;;5025608;28;20033;-62
2022/03/08 04:22:12;;;;;;;27.27;21.48;;;4.60;69.00;;;;;;5024495;28;20661;-62
2022/03/08 04:24:38;;;;;;;27.77;21.23;;;4.60;69.10;;;;;;5005285;28;20033;-62
2022/03/08 04:27:04;;;;;;;27.58;21.63;;;4.60;69.00;;;;;;5020403;28;20521;-60
2022/03/08 04:29:31;;;;;;;29.38;21.45;;;4.60;69.10;;;;;;5021499;28;20615;-61
2022/03/08 04:31:56;;;;;;;28.23;20.92;;;4.60;69.20;;;;;;5020700;28;20107;-62
2022/03/08 04:34:22;;;;;;;29.85;23.50;;;4.60;69.20;;;;;;5021887;28;20053;-62
2022/03/08 04:36:47;;;;;;;28.50;23.35;;;4.50;69.20;;;;;;5021208;28;20084;-61
2022/03/08 04:39:13;;;;;;;36.67;23.75;;;4.60;69.20;;;;;;5023649;28;20560;-61
2022/03/08 04:41:38;;;;;;;30.52;22.00;;;4.70;69.20;;;;;;5022422;28;20044;-60
2022/03/08 04:44:04;;;;;;;32.83;22.70;;;4.60;69.20;;;;;;5021417;28;20032;-61
2022/03/08 04:46:29;;;;;;;26.10;21.58;;;4.50;69.20;;;;;;5022092;28;20148;-61
2022/03/08 04:48:55;;;;;;;27.45;21.70;;;4.50;69.40;;;;;;5022201;28;20037;-62
2022/03/08 04:51:20;;;;;;;32.63;22.77;;;4.50;69.40;;;;;;5022374;28;20060;-62
2022/03/08 04:53:46;;;;;;;27.08;22.45;;;4.50;69.40;;;;;;5022397;28;20453;-61
2022/03/08 04:56:11;;;;;;;26.30;20.80;;;4.50;69.40;;;;;;5022779;28;20032;-61
2022/03/08 04:58:37;;;;;;;30.80;21.65;;;4.50;69.40;;;;;;5021297;28;20124;-60
2022/03/08 05:01:02;;;;;;;36.22;21.83;;;4.40;69.40;;;;;;5020329;28;20033;-62
2022/03/08 05:03:28;;;;;;;30.92;20.65;;;4.40;69.40;;;;;;5021103;28;20025;-61
2022/03/08 05:05:53;;;;;;;26.50;21.02;;;4.40;69.40;;;;;;5021234;28;20037;-62
2022/03/08 05:08:19;;;;;;;25.65;21.10;;;4.40;69.50;;;;;;5022444;28;20507;-60
2022/03/08 05:10:44;;;;;;;31.45;21.80;;;4.40;69.60;;;;;;5022100;28;20047;-61
2022/03/08 05:13:10;;;;;;;33.55;23.88;;;4.40;69.50;;;;;;5020472;28;20052;-61
2022/03/08 05:15:36;;;;;;;28.33;22.05;;;4.40;69.60;;;;;;5021888;28;20040;-62
2022/03/08 05:18:02;;;;;;;32.60;22.50;;;4.40;69.60;;;;;;5022467;28;20030;-61
2022/03/08 05:20:27;;;;;;;49.83;24.08;;;4.30;69.60;;;;;;5022118;28;20025;-61
2022/03/08 05:22:53;;;;;;;39.88;22.50;;;4.30;69.50;;;;;;5020293;28;20175;-62
2022/03/08 05:25:19;;;;;;;45.42;23.77;;;4.30;69.60;;;;;;5022736;28;20045;-61
2022/03/08 05:27:44;;;;;;;44.45;23.63;;;4.30;69.70;;;;;;4986857;28;20040;-60
2022/03/08 05:30:10;;;;;;;35.47;22.63;;;4.30;69.80;;;;;;5019985;28;20084;-61
2022/03/08 05:32:36;;;;;;;46.25;22.65;;;4.20;69.90;;;;;;5004952;28;20867;-62
2022/03/08 05:35:01;;;;;;;41.72;22.45;;;4.20;69.90;;;;;;5022061;28;20188;-60
2022/03/08 05:37:27;;;;;;;45.05;22.17;;;4.20;69.90;;;;;;5020043;28;20045;-63
2022/03/08 05:39:52;;;;;;;41.40;21.83;;;4.20;70.10;;;;;;5022698;28;20037;-61
2022/03/08 05:42:18;;;;;;;35.90;22.25;;;4.20;70.00;;;;;;5018998;28;20033;-62
2022/03/08 05:44:43;;;;;;;35.50;22.52;;;4.20;70.20;;;;;;5021721;28;20049;-61
2022/03/08 05:47:09;;;;;;;43.03;22.27;;;4.20;70.10;;;;;;5020687;28;20112;-61
2022/03/08 05:49:34;;;;;;;35.10;22.13;;;4.20;70.00;;;;;;5019524;28;20034;-62
2022/03/08 05:52:00;;;;;;;37.08;21.88;;;4.20;70.10;;;;;;5018725;28;20038;-60
2022/03/08 05:54:26;;;;;;;45.22;22.58;;;4.20;70.10;;;;;;5019061;28;20026;-61
2022/03/08 05:56:51;;;;;;;37.70;21.77;;;4.10;70.20;;;;;;5019229;28;20025;-60
2022/03/08 05:59:17;;;;;;;39.80;21.02;;;4.10;70.30;;;;;;5021310;28;20389;-62
2022/03/08 06:01:42;;;;;;;41.92;20.98;;;4.10;70.20;;;;;;5020136;28;20476;-62
2022/03/08 06:04:08;;;;;;;48.00;21.70;;;4.10;70.20;;;;;;5019320;28;20493;-62
2022/03/08 06:06:33;;;;;;;29.50;21.00;;;4.10;70.30;;;;;;5018798;28;20296;-61
2022/03/08 06:08:59;;;;;;;38.80;23.60;;;4.10;70.40;;;;;;5021307;28;20052;-61
2022/03/08 06:11:24;;;;;;;45.92;24.25;;;4.10;70.40;;;;;;5020571;28;20033;-61
2022/03/08 06:13:50;;;;;;;39.80;23.17;;;4.10;70.50;;;;;;5022006;28;20393;-61
2022/03/08 06:16:15;;;;;;;66.68;24.02;;;4.10;70.50;;;;;;5004105;28;20116;-61
2022/03/08 06:18:41;;;;;;;93.65;28.08;;;4.10;70.90;;;;;;5001853;28;20107;-60
2022/03/08 06:21:06;;;;;;;55.40;22.55;;;4.40;71.10;;;;;;5017846;28;20029;-60
2022/03/08 06:23:32;;;;;;;70.75;24.40;;;4.60;69.50;;;;;;5019514;28;20541;-59
2022/03/08 06:25:57;;;;;;;59.97;23.38;;;4.50;69.30;;;;;;5023123;28;20516;-60
2022/03/08 06:28:23;;;;;;;65.45;23.17;;;4.50;69.40;;;;;;5020451;28;20580;-60
2022/03/08 06:30:48;;;;;;;49.78;23.88;;;4.40;69.60;;;;;;5017114;28;20762;-60
2022/03/08 06:33:14;;;;;;;44.10;22.52;;;4.30;69.80;;;;;;5016982;28;20045;-60
2022/03/08 06:35:40;;;;;;;40.92;22.50;;;4.30;70.10;;;;;;5017909;28;20052;-60
2022/03/08 06:38:06;;;;;;;47.25;23.67;;;4.20;70.30;;;;;;5021527;28;20112;-60
2022/03/08 06:40:32;;;;;;;54.30;23.15;;;4.20;70.60;;;;;;5019675;28;20616;-60
2022/03/08 06:42:57;;;;;;;40.53;21.98;;;4.10;70.80;;;;;;5017940;28;20040;-60
2022/03/08 06:45:23;;;;;;;40.50;22.30;;;4.10;70.90;;;;;;5015671;28;20068;-60
2022/03/08 06:47:48;;;;;;;61.55;23.13;;;4.10;71.00;;;;;;5017969;28;20528;-60
2022/03/08 06:50:14;;;;;;;61.63;23.85;;;4.10;71.00;;;;;;5019074;28;20047;-61
2022/03/08 06:52:40;;;;;;;47.35;23.63;;;4.00;71.10;;;;;;5003100;28;20204;-60
2022/03/08 06:55:05;;;;;;;62.33;24.27;;;4.00;71.20;;;;;;5017698;28;20029;-59
2022/03/08 06:57:31;;;;;;;50.58;22.85;;;4.00;71.30;;;;;;5014543;28;20342;-60
2022/03/08 06:59:57;;;;;;;46.45;22.13;;;4.10;71.20;;;;;;5016452;28;20038;-59
2022/03/08 07:02:23;;;;;;;50.33;22.02;;;4.10;70.70;;;;;;4998870;28;20025;-60
2022/03/08 07:04:48;;;;;;;38.97;21.77;;;4.20;70.70;;;;;;5021471;28;20052;-60
2022/03/08 07:07:14;;;;;;;50.17;21.77;;;4.10;70.60;;;;;;5005211;28;20482;-60
2022/03/08 07:09:39;;;;;;;48.63;23.52;;;4.10;71.20;;;;;;5005165;28;20040;-60
2022/03/08 07:12:05;;;;;;;40.63;21.63;;;4.00;70.80;;;;;;5015924;28;20044;-60
2022/03/08 07:14:31;;;;;;;37.85;22.05;;;4.00;70.90;;;;;;5021024;28;20025;-60
2022/03/08 07:16:56;;;;;;;42.70;21.83;;;3.80;70.80;;;;;;5025413;28;20042;-60
2022/03/08 07:19:22;;;;;;;50.38;22.05;;;3.90;70.80;;;;;;5020365;28;20203;-60
2022/03/08 07:21:47;;;;;;;45.40;21.83;;;3.90;70.80;;;;;;5019440;28;20354;-60
2022/03/08 07:24:13;;;;;;;33.83;20.40;;;3.90;70.70;;;;;;5019027;28;20045;-60
2022/03/08 07:26:39;;;;;;;36.25;21.70;;;3.90;70.60;;;;;;5010784;28;20111;-60
2022/03/08 07:29:04;;;;;;;46.40;22.30;;;3.90;70.60;;;;;;5024232;28;20033;-60
2022/03/08 07:31:30;;;;;;;33.67;21.77;;;3.80;70.90;;;;;;5020934;28;20042;-60
2022/03/08 07:33:55;;;;;;;36.08;21.40;;;3.80;70.80;;;;;;5021873;28;20734;-59
2022/03/08 07:36:21;;;;;;;42.45;21.17;;;3.80;70.60;;;;;;5020941;28;20061;-60
2022/03/08 07:38:47;;;;;;;40.45;21.30;;;3.90;70.60;;;;;;5000472;28;20037;-60
2022/03/08 07:41:13;;;;;;;35.63;21.38;;;3.80;70.50;;;;;;5020618;28;20500;-60
2022/03/08 07:43:39;;;;;;;41.88;21.65;;;3.80;70.50;;;;;;5006841;28;20108;-61
2022/03/08 07:46:06;;;;;;;38.20;21.23;;;3.80;70.50;;;;;;4976004;28;20041;-60
2022/03/08 07:48:32;;;;;;;33.10;21.20;;;3.80;70.50;;;;;;4999448;28;20046;-61
2022/03/08 07:50:57;;;;;;;33.08;21.45;;;3.80;70.40;;;;;;5015635;28;20044;-59
2022/03/08 07:53:23;;;;;;;36.35;20.90;;;3.80;70.30;;;;;;5018372;28;20052;-60
2022/03/08 07:55:48;;;;;;;32.08;21.20;;;3.90;70.40;;;;;;5022495;28;20124;-60
2022/03/08 07:58:14;;;;;;;34.13;20.17;;;3.80;70.30;;;;;;4995315;28;20099;-59
2022/03/08 08:00:40;;;;;;;45.25;21.13;;;3.80;70.30;;;;;;5009752;28;21195;-60
2022/03/08 08:03:07;;;;;;;36.92;21.08;;;3.80;70.20;;;;;;5006535;28;20133;-60
2022/03/08 08:05:34;;;;;;;36.00;20.50;;;3.80;70.20;;;;;;5010599;28;20021;-60
2022/03/08 08:08:00;;;;;;;30.80;21.00;;;3.70;70.30;;;;;;5009208;28;20043;-60
2022/03/08 08:10:25;;;;;;;27.42;21.10;;;3.80;70.40;;;;;;5014802;28;20409;-60
2022/03/08 08:12:51;;;;;;;35.75;20.20;;;3.80;70.40;;;;;;5003006;28;20037;-60
2022/03/08 08:15:17;;;;;;;33.13;20.70;;;3.80;71.00;;;;;;5009978;28;20045;-60
2022/03/08 08:17:42;;;;;;;37.38;21.25;;;3.80;70.20;;;;;;5006047;28;20026;-60
2022/03/08 08:20:08;;;;;;;33.25;20.63;;;3.80;70.20;;;;;;5011015;28;20673;-60
2022/03/08 08:22:34;;;;;;;39.55;20.33;;;3.80;70.20;;;;;;5011548;28;20060;-60
2022/03/08 08:24:59;;;;;;;45.13;21.58;;;3.80;70.20;;;;;;5018356;28;20029;-62
2022/03/08 08:27:25;;;;;;;36.67;21.50;;;3.80;70.20;;;;;;5015020;28;20029;-59
2022/03/08 08:29:50;;;;;;;36.13;20.38;;;3.90;70.20;;;;;;5015053;28;20049;-60
2022/03/08 08:32:16;;;;;;;41.90;21.27;;;3.80;70.20;;;;;;5016377;28;20045;-60
2022/03/08 08:34:41;;;;;;;42.28;20.85;;;3.90;70.10;;;;;;5017866;28;20606;-60
2022/03/08 08:37:07;;;;;;;48.78;21.60;;;3.80;70.10;;;;;;4997732;28;20052;-60
2022/03/08 08:39:32;;;;;;;35.97;21.17;;;3.80;70.10;;;;;;5017100;28;20502;-59
2022/03/08 08:41:58;;;;;;;51.88;21.60;;;3.80;70.20;;;;;;5015840;28;20026;-60
2022/03/08 08:44:26;;;;;;;40.63;20.98;;;3.80;70.30;;;;;;5016184;28;20130;-60
2022/03/08 08:46:52;;;;;;;48.50;21.13;;;3.80;70.20;;;;;;5014694;28;20038;-60
2022/03/08 08:49:18;;;;;;;38.47;20.85;;;3.80;70.20;;;;;;5021139;28;20044;-60
2022/03/08 08:51:43;;;;;;;54.92;22.40;;;3.90;70.20;;;;;;5018137;28;20037;-60
2022/03/08 08:54:09;;;;;;;43.35;20.90;;;3.90;70.20;;;;;;4996794;28;20034;-60
2022/03/08 08:56:35;;;;;;;43.85;21.55;;;3.90;70.20;;;;;;5014904;28;20456;-60
2022/03/08 08:59:05;;;;;;;46.13;22.42;;;3.90;70.20;;;;;;5011935;28;20932;-59
2022/03/08 09:01:30;;;;;;;51.60;21.77;;;3.90;70.30;;;;;;5017246;28;20124;-60
2022/03/08 09:03:56;;;;;;;43.85;21.63;;;3.90;70.40;;;;;;5001364;28;20445;-60
2022/03/08 09:06:21;;;;;;;52.88;21.98;;;3.90;70.40;;;;;;5015138;28;20041;-60
2022/03/08 09:08:47;;;;;;;48.60;22.05;;;3.90;70.40;;;;;;5018637;28;20380;-60
2022/03/08 09:11:12;;;;;;;50.65;22.60;;;4.00;70.50;;;;;;5013923;28;20459;-61
2022/03/08 09:13:38;;;;;;;60.65;23.05;;;4.00;70.60;;;;;;5014972;28;20111;-59
2022/03/08 09:16:04;;;;;;;52.10;22.50;;;4.00;70.60;;;;;;5011169;28;20574;-59
2022/03/08 09:18:30;;;;;;;51.55;23.05;;;4.00;70.70;;;;;;4996787;28;20641;-60
2022/03/08 09:20:55;;;;;;;59.28;23.08;;;4.00;71.40;;;;;;5012005;28;20080;-60
2022/03/08 09:23:21;;;;;;;53.90;23.00;;;4.00;70.80;;;;;;5013564;28;20096;-60
2022/03/08 09:25:47;;;;;;;49.45;23.13;;;4.00;70.90;;;;;;4999092;28;20134;-60
2022/03/08 09:28:12;;;;;;;72.47;23.20;;;4.00;70.90;;;;;;5005352;28;20557;-60
2022/03/08 09:30:38;;;;;;;61.63;22.70;;;4.10;71.20;;;;;;5006496;28;20562;-60
2022/03/08 09:33:03;;;;;;;59.88;24.13;;;4.00;71.20;;;;;;5011837;28;20533;-60
2022/03/08 09:35:29;;;;;;;70.95;24.13;;;4.00;71.30;;;;;;5010127;28;20113;-60
2022/03/08 09:37:55;;;;;;;56.08;22.90;;;4.10;71.50;;;;;;4994548;28;20034;-60
2022/03/08 09:40:21;;;;;;;74.38;25.40;;;4.10;71.50;;;;;;5005057;28;20044;-60
2022/03/08 09:42:47;;;;;;;61.30;23.58;;;4.10;71.60;;;;;;5002299;28;20084;-62
2022/03/08 09:45:14;;;;;;;59.58;24.00;;;4.10;71.80;;;;;;5011260;28;20124;-59
2022/03/08 09:47:40;;;;;;;58.67;23.00;;;4.10;72.50;;;;;;5014085;28;20167;-60
2022/03/08 09:50:06;;;;;;;35.65;22.30;;;4.20;71.90;;;;;;5006734;28;20068;-61
2022/03/08 09:52:35;;;;;;;53.58;22.40;;;4.20;71.80;;;;;;5014132;28;20453;-60
2022/03/08 09:55:01;;;;;;;59.50;24.58;;;4.20;71.90;;;;;;5006650;28;20044;-60
2022/03/08 09:57:26;;;;;;;64.13;23.83;;;4.20;71.90;;;;;;5010544;28;20152;-60
2022/03/08 09:59:52;;;;;;;52.90;23.60;;;4.20;72.00;;;;;;5006933;28;20031;-60
2022/03/08 10:02:17;;;;;;;50.00;23.83;;;4.20;72.00;;;;;;5006575;28;20072;-60
2022/03/08 10:04:43;;;;;;;51.92;23.95;;;4.20;72.00;;;;;;5010329;28;20129;-60
2022/03/08 10:07:09;;;;;;;49.40;24.08;;;4.20;71.90;;;;;;5010230;28;20143;-59
2022/03/08 10:09:35;;;;;;;50.28;24.88;;;4.30;71.90;;;;;;4999744;28;20052;-60
2022/03/08 10:12:01;;;;;;;42.70;22.67;;;4.30;71.80;;;;;;5012226;28;20341;-60
2022/03/08 10:14:38;;;;;;;46.13;24.17;;;4.30;71.80;;;;;;5013499;28;20091;-60
2022/03/08 10:17:05;;;;;;;56.72;24.58;;;4.30;71.90;;;;;;5013565;28;20038;-60
2022/03/08 10:19:30;;;;;;;55.00;24.45;;;4.50;72.10;;;;;;5007299;28;20048;-60
2022/03/08 10:21:57;;;;;;;62.08;25.35;;;4.30;72.10;;;;;;5018582;28;20663;-60
2022/03/08 10:24:25;;;;;;;53.22;25.10;;;4.40;72.10;;;;;;5013853;28;20370;-60
2022/03/08 10:27:10;;;;;;;55.90;25.05;;;4.40;72.30;;;;;;5015748;28;20029;-60
2022/03/08 10:29:37;;;;;;;41.88;22.42;;;4.40;72.20;;;;;;5017316;28;20439;-59
2022/03/08 10:32:07;;;;;;;47.83;23.63;;;4.40;72.20;;;;;;4995760;28;20158;-60
2022/03/08 10:34:33;;;;;;;43.40;23.83;;;4.50;72.30;;;;;;4998412;28;20124;-60
2022/03/08 10:37:07;;;;;;;47.67;23.40;;;4.50;72.30;;;;;;5013495;28;20124;-60
2022/03/08 10:39:32;;;;;;;50.28;25.00;;;4.50;72.30;;;;;;5014440;28;20123;-60
2022/03/08 10:41:58;;;;;;;58.55;26.02;;;4.50;72.30;;;;;;5011631;28;20477;-60
2022/03/08 10:44:34;;;;;;;60.10;27.05;;;4.50;72.40;;;;;;5015888;28;20037;-60
2022/03/08 10:47:05;;;;;;;65.82;26.02;;;4.50;72.30;;;;;;5013693;28;20094;-60
2022/03/08 10:49:33;;;;;;;63.00;25.85;;;4.60;72.30;;;;;;5008841;28;20489;-60
2022/03/08 10:52:05;;;;;;;52.40;24.85;;;4.60;72.30;;;;;;5011924;28;20096;-60
2022/03/08 10:54:31;;;;;;;63.65;26.00;;;4.60;72.40;;;;;;5010543;28;20045;-59
2022/03/08 10:56:57;;;;;;;66.38;26.85;;;4.60;72.40;;;;;;5011966;28;20033;-60
2022/03/08 10:59:23;;;;;;;56.00;26.38;;;4.60;72.90;;;;;;5013384;28;20124;-60
2022/03/08 11:01:48;;;;;;;95.60;29.75;;;4.70;72.40;;;;;;5014149;28;20048;-60
2022/03/08 11:04:18;;;;;;;72.18;27.88;;;4.70;72.40;;;;;;5013488;28;20045;-60
2022/03/08 11:06:44;;;;;;;68.65;23.90;;;4.70;72.30;;;;;;4996272;28;20449;-60
2022/03/08 11:09:10;;;;;;;53.67;26.08;;;4.80;72.10;;;;;;5003889;28;20024;-59
2022/03/08 11:11:36;;;;;;;53.00;26.33;;;4.80;71.90;;;;;;5000770;28;20072;-60
2022/03/08 11:14:02;;;;;;;54.50;26.80;;;4.80;71.80;;;;;;4995251;28;20457;-60
2022/03/08 11:16:28;;;;;;;59.47;27.70;;;4.80;71.80;;;;;;5011715;28;20042;-60
2022/03/08 11:18:53;;;;;;;56.53;26.55;;;4.80;71.70;;;;;;4999651;28;20120;-60
2022/03/08 11:21:19;;;;;;;58.80;26.48;;;4.80;71.70;;;;;;5015227;28;20422;-60
2022/03/08 11:23:45;;;;;;;62.58;26.83;;;4.90;71.90;;;;;;5013738;28;20072;-60
2022/03/08 11:26:13;;;;;;;87.32;27.98;;;5.00;71.80;;;;;;5001055;28;20576;-60
2022/03/08 11:28:38;;;;;;;73.15;28.60;;;5.00;71.70;;;;;;5020656;28;20475;-61
2022/03/08 11:31:04;;;;;;;79.50;30.75;;;4.90;71.60;;;;;;5008544;28;20041;-59
2022/03/08 11:33:51;;;;;;;71.95;26.85;;;5.00;71.60;;;;;;5001424;28;20044;-60
2022/03/08 11:36:39;;;;;;;82.00;28.48;;;5.10;71.80;;;;;;5015925;28;20072;-60
2022/03/08 11:39:14;;;;;;;58.03;26.70;;;5.10;71.50;;;;;;5014285;28;20158;-60
2022/03/08 11:41:40;;;;;;;54.70;26.27;;;5.10;71.40;;;;;;5012701;28;20302;-60
2022/03/08 11:44:06;;;;;;;81.60;28.52;;;5.20;71.20;;;;;;5008084;28;21425;-60
2022/03/08 11:46:31;;;;;;;92.88;28.15;;;5.20;71.20;;;;;;5012560;28;20468;-60
2022/03/08 11:49:02;;;;;;;60.58;26.83;;;5.20;71.40;;;;;;5016016;28;20030;-60
2022/03/08 11:51:28;;;;;;;67.68;27.63;;;5.20;71.30;;;;;;4997794;28;20481;-60
2022/03/08 11:54:08;;;;;;;67.72;27.10;;;5.20;71.20;;;;;;5013470;28;20052;-60
2022/03/08 11:56:47;;;;;;;61.80;25.35;;;5.30;71.10;;;;;;5000797;28;20026;-60
2022/03/08 11:59:12;;;;;;;75.57;27.65;;;5.30;71.10;;;;;;5010420;28;20126;-59
2022/03/08 12:01:38;;;;;;;60.25;27.27;;;5.30;70.90;;;;;;5017547;28;20609;-61
2022/03/08 12:04:12;;;;;;;54.03;27.48;;;5.40;71.00;;;;;;5017944;28;20084;-59
2022/03/08 12:06:37;;;;;;;63.03;26.92;;;5.40;70.70;;;;;;5002174;28;20060;-61
2022/03/08 12:09:15;;;;;;;48.28;27.42;;;5.40;70.70;;;;;;5016992;28;20021;-60
2022/03/08 12:11:58;;;;;;;69.05;27.77;;;5.40;70.60;;;;;;5003912;28;20112;-60
2022/03/08 12:14:31;;;;;;;64.45;27.13;;;5.50;70.60;;;;;;5014298;28;20042;-60
2022/03/08 12:17:11;;;;;;;69.13;27.73;;;5.50;70.60;;;;;;5021032;28;20091;-59
2022/03/08 12:19:42;;;;;;;65.35;27.08;;;5.60;70.60;;;;;;5017394;28;20472;-60
2022/03/08 12:22:21;;;;;;;70.07;27.83;;;5.60;70.30;;;;;;5017901;28;20033;-60
2022/03/08 12:24:54;;;;;;;60.88;26.77;;;5.70;70.40;;;;;;5015494;28;20040;-60
2022/03/08 12:27:20;;;;;;;58.17;26.90;;;5.70;70.80;;;;;;5017982;28;20033;-60
2022/03/08 12:29:51;;;;;;;63.10;26.88;;;5.70;70.20;;;;;;5002722;28;20072;-61
2022/03/08 12:32:39;;;;;;;54.55;27.00;;;5.80;70.20;;;;;;4998512;28;20249;-61